Time;durP1;ratioP1;P1;durP2;ratioP2;P2;SDS_P1;SDS_P2;PMS_P1;PMS_P2;Temp;Humidity;BMP_temperature;BMP_pressure;BME280_temperature;BME280_humidity;BME280_pressure;Samples;Min_cycle;Max_cycle;Signal;HPM_P1;HPM_P2
2022/01/01 00:01:11;;;;;;;;;;;;;;;21.05;57.49;101818.72;7278511;19;152219;-51
2022/01/01 00:03:39;;;;;;;;;;;;;;;21.07;57.45;101816.47;7278448;19;153232;-50
2022/01/01 00:06:07;;;;;;;;;;;;;;;21.07;56.91;101806.06;7277352;19;154027;-50
2022/01/01 00:08:34;;;;;;;;;;;;;;;21.08;57.55;101790.03;7277474;19;151871;-49
2022/01/01 00:11:02;;;;;;;;;;;;;;;21.08;57.70;101792.84;7286945;19;153923;-52
2022/01/01 00:13:49;;;;;;;;;;;;;;;21.09;57.55;101791.72;7279931;19;152201;-50
2022/01/01 00:16:16;;;;;;;;;;;;;;;21.11;57.26;101786.66;7281215;19;153469;-50
2022/01/01 00:18:43;;;;;;;;;;;;;;;21.13;57.17;101788.06;7280668;19;156352;-50
2022/01/01 00:21:10;;;;;;;;;;;;;;;21.13;57.44;101781.59;7281570;19;152521;-49
2022/01/01 00:23:37;;;;;;;;;;;;;;;21.15;56.91;101768.09;7281659;19;153482;-50
2022/01/01 00:26:04;;;;;;;;;;;;;;;21.13;56.79;101781.59;7277609;19;153483;-50
2022/01/01 00:28:31;;;;;;;;;;;;;;;21.12;56.90;101783.53;7279827;19;152230;-50
2022/01/01 00:30:59;;;;;;;;;;;;;;;21.14;57.23;101783.28;7282299;19;153137;-50
2022/01/01 00:33:29;;;;;;;;;;;;;;;21.14;56.91;101789.75;7291497;19;154056;-50
2022/01/01 00:35:59;;;;;;;;;;;;;;;21.15;56.75;101790.59;7287114;19;151782;-50
2022/01/01 00:38:30;;;;;;;;;;;;;;;21.14;56.70;101786.09;7284222;19;152880;-50
2022/01/01 00:40:58;;;;;;;;;;;;;;;21.12;56.74;101780.72;7286410;19;152210;-50
2022/01/01 00:43:26;;;;;;;;;;;;;;;21.14;56.70;101786.94;7285103;19;152120;-50
2022/01/01 00:45:53;;;;;;;;;;;;;;;21.13;57.00;101775.97;7283378;19;153140;-50
2022/01/01 00:48:21;;;;;;;;;;;;;;;21.13;57.03;101773.16;7282639;19;152523;-50
2022/01/01 00:50:48;;;;;;;;;;;;;;;21.12;57.10;101777.09;7283254;19;154528;-50
2022/01/01 00:53:15;;;;;;;;;;;;;;;21.11;56.90;101779.06;7285652;19;153325;-50
2022/01/01 00:55:42;;;;;;;;;;;;;;;21.11;56.80;101778.22;7292036;19;151935;-50
2022/01/01 00:58:10;;;;;;;;;;;;;;;21.10;57.11;101776.53;7285466;19;154211;-50
2022/01/01 01:00:37;;;;;;;;;;;;;;;21.11;56.63;101783.84;7286956;19;151804;-50
2022/01/01 01:03:07;;;;;;;;;;;;;;;21.10;56.44;101782.16;7286654;19;153665;-50
2022/01/01 01:05:34;;;;;;;;;;;;;;;21.09;56.55;101792.56;7284790;19;154001;-50
2022/01/01 01:08:02;;;;;;;;;;;;;;;21.07;56.52;101794.84;7283282;19;151886;-50
2022/01/01 01:10:29;;;;;;;;;;;;;;;21.08;56.82;101790.03;7284486;19;152084;-50
2022/01/01 01:12:56;;;;;;;;;;;;;;;21.03;56.70;101785.28;7285670;19;153797;-50
2022/01/01 01:15:24;;;;;;;;;;;;;;;21.03;56.88;101788.09;7284261;19;151975;-50
2022/01/01 01:17:52;;;;;;;;;;;;;;;21.02;56.44;101791.22;7291534;19;153442;-50
2022/01/01 01:20:20;;;;;;;;;;;;;;;21.00;56.92;101782.22;7286462;19;152263;-51
2022/01/01 01:22:47;;;;;;;;;;;;;;;20.99;56.91;101780.53;7284342;19;153525;-50
2022/01/01 01:25:15;;;;;;;;;;;;;;;20.99;56.90;101794.59;7284597;19;154151;-51
2022/01/01 01:27:42;;;;;;;;;;;;;;;20.95;56.64;101794.34;7282922;19;152002;-51
2022/01/01 01:30:13;;;;;;;;;;;;;;;20.92;56.62;101785.66;7284661;19;153759;-49
2022/01/01 01:32:41;;;;;;;;;;;;;;;20.90;57.16;101790.72;7283442;19;153074;-49
2022/01/01 01:35:10;;;;;;;;;;;;;;;20.88;57.00;101790.16;7286770;19;151932;-50
2022/01/01 01:37:38;;;;;;;;;;;;;;;20.85;56.96;101774.72;7287223;19;153006;-50
2022/01/01 01:40:05;;;;;;;;;;;;;;;20.83;56.87;101769.41;7291725;19;152030;-50
2022/01/01 01:42:34;;;;;;;;;;;;;;;20.84;56.86;101767.44;7281265;19;155939;-50
2022/01/01 01:45:03;;;;;;;;;;;;;;;20.81;57.08;101763.22;7282892;19;153879;-50
2022/01/01 01:47:34;;;;;;;;;;;;;;;20.78;57.38;101763.81;7284428;19;152136;-49
2022/01/01 01:50:06;;;;;;;;;;;;;;;20.78;57.35;101766.63;7284969;19;154252;-49
2022/01/01 01:52:36;;;;;;;;;;;;;;;20.76;57.48;101768.03;7284162;19;154116;-49
2022/01/01 01:55:05;;;;;;;;;;;;;;;20.71;57.38;101760.50;7283969;19;151846;-50
2022/01/01 01:57:35;;;;;;;;;;;;;;;20.72;57.21;101779.03;7285857;19;153414;-49
2022/01/01 02:00:07;;;;;;;;;;;;;;;20.70;57.29;101780.44;7292248;19;154213;-49
2022/01/01 02:02:36;;;;;;;;;;;;;;;20.65;57.27;101774.84;7285724;19;153478;-50
2022/01/01 02:05:04;;;;;;;;;;;;;;;20.63;57.66;101775.13;7283756;19;153332;-50
2022/01/01 02:07:32;;;;;;;;;;;;;;;20.62;57.75;101776.28;7283318;19;152190;-50
2022/01/01 02:09:59;;;;;;;;;;;;;;;20.58;57.82;101765.94;7288837;19;153476;-49
2022/01/01 02:12:27;;;;;;;;;;;;;;;20.55;57.61;101772.09;7283441;19;153304;-49
2022/01/01 02:17:28;;;;;;;;;;;;;;;20.49;58.19;101762.84;7284862;19;152484;-50
2022/01/01 02:22:32;;;;;;;;;;;;;;;20.46;58.08;101771.03;7290609;19;152112;-49
2022/01/01 02:24:59;;;;;;;;;;;;;;;20.45;58.17;101774.94;7280927;19;153662;-49
2022/01/01 02:27:26;;;;;;;;;;;;;;;20.44;58.01;101771.31;7284352;19;152220;-49
2022/01/01 02:29:53;;;;;;;;;;;;;;;20.41;57.94;101769.91;7284899;19;153855;-50
2022/01/01 02:32:21;;;;;;;;;;;;;;;20.39;57.84;101783.41;7281301;19;154108;-50
2022/01/01 02:34:48;;;;;;;;;;;;;;;20.36;58.36;101788.75;7282892;19;152586;-50
2022/01/01 02:37:15;;;;;;;;;;;;;;;20.34;58.24;101800.28;7282874;19;153507;-50
2022/01/01 02:39:42;;;;;;;;;;;;;;;20.34;58.35;101819.06;7283343;19;153312;-50
2022/01/01 02:42:11;;;;;;;;;;;;;;;20.34;57.91;101811.50;7281748;19;152366;-50
2022/01/01 02:44:39;;;;;;;;;;;;;;;20.31;58.33;101811.22;7288318;19;153742;-50
2022/01/01 02:47:06;;;;;;;;;;;;;;;20.27;58.22;101794.06;7284485;19;152153;-49
2022/01/01 02:49:34;;;;;;;;;;;;;;;20.25;58.23;101789.88;7285568;19;153616;-49
2022/01/01 02:52:01;;;;;;;;;;;;;;;20.23;58.36;101794.94;7283179;19;152801;-49
2022/01/01 02:54:28;;;;;;;;;;;;;;;20.20;58.70;101795.53;7284000;19;152937;-50
2022/01/01 02:56:55;;;;;;;;;;;;;;;20.19;58.40;101791.03;7284614;19;153677;-50
2022/01/01 02:59:22;;;;;;;;;;;;;;;20.19;58.68;101797.47;7283096;19;152790;-50
2022/01/01 03:01:50;;;;;;;;;;;;;;;20.16;58.92;101797.22;7282282;19;152607;-50
2022/01/01 03:04:17;;;;;;;;;;;;;;;20.15;58.55;101793.56;7284276;19;153823;-50
2022/01/01 03:06:52;;;;;;;;;;;;;;;20.11;58.62;101800.03;7289242;19;152922;-49
2022/01/01 03:09:19;;;;;;;;;;;;;;;20.13;58.45;101807.03;7281349;19;152550;-50
2022/01/01 03:11:46;;;;;;;;;;;;;;;20.11;58.62;101805.66;7282644;19;154399;-50
2022/01/01 03:14:17;;;;;;;;;;;;;;;20.12;58.65;101798.91;7284069;19;152525;-50
2022/01/01 03:16:45;;;;;;;;;;;;;;;20.10;58.63;101803.97;7282819;19;153085;-50
2022/01/01 03:19:12;;;;;;;;;;;;;;;20.06;58.60;101803.69;7279536;19;154574;-52
2022/01/01 03:21:39;;;;;;;;;;;;;;;20.04;58.88;101794.72;7281237;19;151767;-49
2022/01/01 03:24:08;;;;;;;;;;;;;;;20.02;58.63;101791.38;7284386;19;152723;-49
2022/01/01 03:26:35;;;;;;;;;;;;;;;20.02;58.63;101793.31;7279556;19;152935;-50
2022/01/01 03:29:02;;;;;;;;;;;;;;;20.00;58.64;101788.00;7287983;19;151759;-50
2022/01/01 03:31:30;;;;;;;;;;;;;;;19.98;59.10;101796.72;7279633;19;153550;-50
2022/01/01 03:33:58;;;;;;;;;;;;;;;19.98;58.95;101802.31;7283517;19;152273;-50
2022/01/01 03:36:25;;;;;;;;;;;;;;;19.96;59.07;101793.34;7282357;19;153840;-50
2022/01/01 03:38:53;;;;;;;;;;;;;;;19.96;59.06;101793.34;7280715;19;152997;-50
2022/01/01 03:41:19;;;;;;;;;;;;;;;19.94;59.06;101783.53;7280676;19;152245;-49
2022/01/01 03:43:46;;;;;;;;;;;;;;;19.93;59.15;101784.66;7286482;19;152618;-50
2022/01/01 03:46:13;;;;;;;;;;;;;;;19.92;58.84;101783.81;7283138;19;153430;-50
2022/01/01 03:48:41;;;;;;;;;;;;;;;19.91;58.70;101765.28;7287576;19;152312;-50
2022/01/01 03:51:08;;;;;;;;;;;;;;;19.91;58.77;101764.44;7281646;19;152947;-50
2022/01/01 03:53:35;;;;;;;;;;;;;;;19.90;58.85;101762.75;7280770;19;152665;-50
2022/01/01 03:56:02;;;;;;;;;;;;;;;19.86;59.05;101770.91;7280004;19;154108;-50
2022/01/01 03:58:29;;;;;;;;;;;;;;;19.86;59.25;101767.25;7281594;19;153980;-50
2022/01/01 04:00:56;;;;;;;;;;;;;;;19.86;59.13;101753.25;7280371;19;152378;-49
2022/01/01 04:03:24;;;;;;;;;;;;;;;19.83;59.25;101756.63;7279648;19;152674;-50
2022/01/01 04:05:51;;;;;;;;;;;;;;;19.81;59.29;101756.06;7280273;19;153458;-50
2022/01/01 04:08:18;;;;;;;;;;;;;;;19.83;59.11;101757.47;7279396;19;151961;-50
2022/01/01 04:10:45;;;;;;;;;;;;;;;19.82;58.94;101752.13;7286910;19;152276;-50
2022/01/01 04:13:12;;;;;;;;;;;;;;;19.79;59.27;101752.72;7280253;19;151992;-50
2022/01/01 04:15:41;;;;;;;;;;;;;;;19.76;59.18;101751.28;7282282;19;153139;-51
2022/01/01 04:18:11;;;;;;;;;;;;;;;19.75;59.01;101758.06;7280905;19;154087;-50
2022/01/01 04:20:38;;;;;;;;;;;;;;;19.76;59.02;101758.91;7284764;19;151614;-49
2022/01/01 04:23:07;;;;;;;;;;;;;;;19.75;58.95;101749.66;7280269;19;153176;-50
2022/01/01 04:25:34;;;;;;;;;;;;;;;19.74;59.27;101745.16;7278959;19;153762;-50
2022/01/01 04:28:01;;;;;;;;;;;;;;;19.72;59.04;101743.75;7280874;19;151891;-51
2022/01/01 04:30:29;;;;;;;;;;;;;;;19.71;59.41;101742.94;7282790;19;152671;-51
2022/01/01 04:32:56;;;;;;;;;;;;;;;19.69;59.20;101745.16;7287250;19;154280;-50
2022/01/01 04:35:23;;;;;;;;;;;;;;;19.68;59.51;101735.06;7281123;19;152621;-50
2022/01/01 04:37:50;;;;;;;;;;;;;;;19.66;59.15;101734.53;7281024;19;153838;-50
2022/01/01 04:40:17;;;;;;;;;;;;;;;19.66;59.11;101733.69;7281366;19;151999;-51
2022/01/01 04:42:44;;;;;;;;;;;;;;;19.65;59.31;101732.84;7279360;19;153313;-50
2022/01/01 04:45:11;;;;;;;;;;;;;;;19.62;59.45;101730.59;7280027;19;152916;-50
2022/01/01 04:47:38;;;;;;;;;;;;;;;19.64;59.27;101724.69;7281347;19;152469;-50
2022/01/01 04:50:05;;;;;;;;;;;;;;;19.61;59.24;101722.47;7275334;19;153340;-50
2022/01/01 04:52:32;;;;;;;;;;;;;;;19.60;59.30;101721.63;7279516;19;154104;-50
2022/01/01 04:54:58;;;;;;;;;;;;;;;19.61;59.35;101722.47;7285227;19;152028;-50
2022/01/01 04:57:30;;;;;;;;;;;;;;;19.61;59.51;101726.13;7279734;19;153788;-50
2022/01/01 04:59:58;;;;;;;;;;;;;;;19.58;59.30;101714.63;7281133;19;152144;-50
2022/01/01 05:02:26;;;;;;;;;;;;;;;19.57;59.29;101712.94;7282462;19;152636;-50
2022/01/01 05:04:53;;;;;;;;;;;;;;;19.53;59.44;101724.72;7278860;19;153927;-51
2022/01/01 05:07:21;;;;;;;;;;;;;;;19.52;59.82;101711.84;7276871;19;152126;-50
2022/01/01 05:09:47;;;;;;;;;;;;;;;19.52;59.37;101700.63;7275553;19;153359;-50
2022/01/01 05:12:14;;;;;;;;;;;;;;;19.48;59.43;101705.13;7277929;19;153428;-50
2022/01/01 05:14:41;;;;;;;;;;;;;;;19.51;59.33;101706.50;7280280;19;152249;-50
2022/01/01 05:17:08;;;;;;;;;;;;;;;19.48;59.71;101699.53;7286816;19;153411;-50
2022/01/01 05:19:35;;;;;;;;;;;;;;;19.49;59.72;101697.53;7287428;19;152425;-50
2022/01/01 05:22:01;;;;;;;;;;;;;;;19.47;59.79;101700.63;7285502;19;153296;-50
2022/01/01 05:24:28;;;;;;;;;;;;;;;19.46;59.78;101695.31;7285833;19;154132;-50
2022/01/01 05:26:58;;;;;;;;;;;;;;;19.45;59.77;101693.63;7287655;19;151853;-50
2022/01/01 05:29:24;;;;;;;;;;;;;;;19.41;60.08;101670.06;7283899;19;153231;-50
2022/01/01 05:31:51;;;;;;;;;;;;;;;19.41;59.86;101664.44;7284289;19;154425;-49
2022/01/01 05:34:18;;;;;;;;;;;;;;;19.42;59.73;101671.75;7284966;19;151899;-50
2022/01/01 05:36:44;;;;;;;;;;;;;;;19.41;59.70;101670.06;7287014;19;152862;-49
2022/01/01 05:39:11;;;;;;;;;;;;;;;19.40;59.79;101674.81;7292743;19;153918;-50
2022/01/01 05:41:38;;;;;;;;;;;;;;;19.40;59.75;101657.16;7286072;19;153302;-50
2022/01/01 05:44:05;;;;;;;;;;;;;;;19.38;59.89;101656.63;7282206;19;154402;-50
2022/01/01 05:46:32;;;;;;;;;;;;;;;19.35;60.10;101646.81;7284662;19;152458;-50
2022/01/01 05:48:59;;;;;;;;;;;;;;;19.35;59.88;101643.19;7282808;19;153302;-49
2022/01/01 05:51:26;;;;;;;;;;;;;;;19.34;60.19;101633.09;7283703;19;153387;-50
2022/01/01 05:53:53;;;;;;;;;;;;;;;19.30;60.33;101624.44;7286820;19;153009;-50
2022/01/01 05:56:19;;;;;;;;;;;;;;;19.30;59.88;101630.03;7284504;19;153109;-50
2022/01/01 05:58:46;;;;;;;;;;;;;;;19.28;60.33;101635.06;7292614;19;153405;-50
2022/01/01 06:01:13;;;;;;;;;;;;;;;19.29;60.04;101616.28;7286779;19;152835;-49
2022/01/01 06:03:40;;;;;;;;;;;;;;;19.24;60.54;101625.53;7284638;19;154387;-50
2022/01/01 06:06:06;;;;;;;;;;;;;;;19.24;60.28;101613.50;7285884;19;153296;-50
2022/01/01 06:08:49;;;;;;;;;;;;;;;19.23;60.63;101614.63;7283655;19;153330;-50
2022/01/01 06:11:15;;;;;;;;;;;;;;;19.21;60.53;101609.31;7285367;19;153455;-50
2022/01/01 06:13:42;;;;;;;;;;;;;;;19.22;60.37;101612.94;7285809;19;152607;-50
2022/01/01 06:16:08;;;;;;;;;;;;;;;19.20;60.77;101621.63;7286015;19;153511;-49
2022/01/01 06:18:35;;;;;;;;;;;;;;;19.23;60.43;101611.81;7282641;19;153423;-50
2022/01/01 06:21:03;;;;;;;;;;;;;;;19.20;60.67;101612.38;7292701;19;152009;-50
2022/01/01 06:23:31;;;;;;;;;;;;;;;19.20;60.28;101606.78;7285540;19;153359;-50
2022/01/01 06:25:57;;;;;;;;;;;;;;;19.17;60.63;101610.16;7285938;19;152356;-49
2022/01/01 06:28:24;;;;;;;;;;;;;;;19.17;60.24;101599.78;7282267;19;152391;-50
2022/01/01 06:30:51;;;;;;;;;;;;;;;19.15;60.41;101592.78;7283737;19;153062;-49
2022/01/01 06:33:18;;;;;;;;;;;;;;;19.15;60.68;101579.63;7283599;19;152098;-50
2022/01/01 06:35:45;;;;;;;;;;;;;;;19.12;60.42;101583.00;7284580;19;152966;-50
2022/01/01 06:38:12;;;;;;;;;;;;;;;19.14;60.84;101582.69;7284277;19;154267;-49
2022/01/01 06:40:40;;;;;;;;;;;;;;;19.12;60.71;101576.56;7285392;19;152126;-50
2022/01/01 06:43:07;;;;;;;;;;;;;;;19.09;60.41;101570.38;7291562;19;153133;-50
2022/01/01 06:45:34;;;;;;;;;;;;;;;19.14;60.31;101571.50;7281416;19;151841;-50
2022/01/01 06:48:02;;;;;;;;;;;;;;;19.13;60.40;101570.66;7285774;19;153324;-50
2022/01/01 06:50:29;;;;;;;;;;;;;;;19.17;60.28;101573.75;7279349;19;153318;-50
2022/01/01 06:52:55;;;;;;;;;;;;;;;19.20;60.14;101543.19;7283492;19;152156;-50
2022/01/01 06:55:22;;;;;;;;;;;;;;;19.26;60.16;101561.66;7284518;19;153234;-51
2022/01/01 06:57:49;;;;;;;;;;;;;;;19.34;60.40;101561.09;7281388;19;153352;-51
2022/01/01 07:00:16;;;;;;;;;;;;;;;19.41;60.42;101557.97;7283161;19;152316;-50
2022/01/01 07:02:44;;;;;;;;;;;;;;;19.47;60.39;101545.66;7281245;19;152803;-50
2022/01/01 07:05:12;;;;;;;;;;;;;;;19.52;60.15;101548.44;7291691;19;154196;-50
2022/01/01 07:07:39;;;;;;;;;;;;;;;19.55;60.23;101556.25;7279866;19;153104;-49
2022/01/01 07:10:06;;;;;;;;;;;;;;;19.59;60.26;101551.75;7279866;19;153472;-49
2022/01/01 07:12:33;;;;;;;;;;;;;;;19.63;59.85;101541.63;7282805;19;152242;-49
2022/01/01 07:15:00;;;;;;;;;;;;;;;19.68;59.91;101536.00;7282057;19;153514;-50
2022/01/01 07:17:27;;;;;;;;;;;;;;;19.73;59.71;101538.78;7283457;19;153418;-50
2022/01/01 07:19:54;;;;;;;;;;;;;;;19.77;59.41;101530.63;7284423;19;152092;-50
2022/01/01 07:22:20;;;;;;;;;;;;;;;19.81;59.49;101540.97;7283523;19;153306;-50
2022/01/01 07:24:47;;;;;;;;;;;;;;;19.87;59.04;101548.25;7283183;19;153830;-50
2022/01/01 07:27:14;;;;;;;;;;;;;;;19.93;59.13;101540.66;7291554;19;151962;-50
2022/01/01 07:29:40;;;;;;;;;;;;;;;19.98;58.66;101549.03;7282532;19;153789;-50
2022/01/01 07:32:07;;;;;;;;;;;;;;;20.03;58.42;101536.94;7284819;19;152070;-50
2022/01/01 07:34:34;;;;;;;;;;;;;;;20.08;58.09;101545.31;7283843;19;152860;-50
2022/01/01 07:37:01;;;;;;;;;;;;;;;20.13;57.89;101540.50;7285049;19;153967;-50
2022/01/01 07:39:28;;;;;;;;;;;;;;;20.18;57.90;101537.66;7281234;19;152169;-49
2022/01/01 07:41:55;;;;;;;;;;;;;;;20.23;57.51;101537.63;7279626;19;153816;-50
2022/01/01 07:44:21;;;;;;;;;;;;;;;20.29;57.43;101541.25;7282904;19;153733;-50
2022/01/01 07:46:50;;;;;;;;;;;;;;;20.33;57.30;101533.94;7283408;19;151980;-50
2022/01/01 07:49:17;;;;;;;;;;;;;;;20.38;57.22;101528.28;7289037;19;153615;-50
2022/01/01 07:51:44;;;;;;;;;;;;;;;20.44;56.75;101520.66;7282951;19;152064;-50
2022/01/01 07:54:11;;;;;;;;;;;;;;;20.48;56.72;101516.97;7282854;19;153545;-50
2022/01/01 07:56:37;;;;;;;;;;;;;;;20.51;56.39;101530.41;7282288;19;153408;-50
2022/01/01 07:59:04;;;;;;;;;;;;;;;20.58;56.32;101521.66;7281177;19;152242;-49
2022/01/01 08:01:31;;;;;;;;;;;;;;;20.61;56.15;101524.72;7282930;19;153327;-50
2022/01/01 08:04:02;;;;;;;;;;;;;;;20.65;55.65;101524.94;7280823;19;153060;-50
2022/01/01 08:06:30;;;;;;;;;;;;;;;20.68;55.75;101524.34;7281160;19;152086;-50
2022/01/01 08:08:57;;;;;;;;;;;;;;;20.73;55.36;101519.53;7286976;19;153147;-50
2022/01/01 08:11:24;;;;;;;;;;;;;;;20.77;55.07;101528.19;7279939;19;152045;-50
2022/01/01 08:13:52;;;;;;;;;;;;;;;20.81;55.00;101520.84;7282730;19;152798;-50
2022/01/01 08:16:19;;;;;;;;;;;;;;;20.84;54.54;101509.88;7277669;19;152354;-50
2022/01/01 08:18:45;;;;;;;;;;;;;;;20.87;54.74;101525.28;7280904;19;151712;-50
2022/01/01 08:21:12;;;;;;;;;;;;;;;20.90;54.19;101510.63;7280954;19;153041;-50
2022/01/01 08:23:39;;;;;;;;;;;;;;;20.94;54.03;101510.91;7281098;19;153963;-50
2022/01/01 08:26:10;;;;;;;;;;;;;;;20.98;53.84;101509.19;7280162;19;152596;-50
2022/01/01 08:28:37;;;;;;;;;;;;;;;20.98;53.96;101515.63;7280503;19;153341;-50
2022/01/01 08:31:04;;;;;;;;;;;;;;;20.98;53.36;101507.22;7285185;19;153273;-50
2022/01/01 08:33:31;;;;;;;;;;;;;;;21.00;53.52;101504.06;7279782;19;153199;-50
2022/01/01 08:35:58;;;;;;;;;;;;;;;21.01;53.14;101502.94;7279102;19;153759;-50
2022/01/01 08:38:25;;;;;;;;;;;;;;;21.02;52.83;101499.00;7283105;19;151903;-50
2022/01/01 08:40:52;;;;;;;;;;;;;;;21.04;52.73;101500.38;7282448;19;152659;-50
2022/01/01 08:43:18;;;;;;;;;;;;;;;21.03;52.61;101495.88;7280622;19;153778;-50
2022/01/01 08:45:45;;;;;;;;;;;;;;;21.04;52.60;101508.81;7280353;19;152188;-50
2022/01/01 08:48:12;;;;;;;;;;;;;;;21.05;52.68;101509.66;7281464;19;153537;-50
2022/01/01 08:50:39;;;;;;;;;;;;;;;21.06;52.16;101516.94;7279502;19;154098;-50
2022/01/01 08:53:06;;;;;;;;;;;;;;;21.05;52.35;101515.25;7289690;19;153174;-50
2022/01/01 08:55:32;;;;;;;;;;;;;;;21.05;52.20;101516.09;7286952;19;153269;-50
2022/01/01 08:58:00;;;;;;;;;;;;;;;21.05;51.99;101512.44;7288651;19;151903;-50
2022/01/01 09:00:47;;;;;;;;;;;;;;;21.04;51.78;101528.47;7287937;19;153255;-50
2022/01/01 09:03:14;;;;;;;;;;;;;;;21.04;51.45;101536.06;7288895;19;153949;-50
2022/01/01 09:05:41;;;;;;;;;;;;;;;21.05;51.40;101540.56;7290416;19;152233;-50
2022/01/01 09:08:29;;;;;;;;;;;;;;;21.04;50.89;101522.00;7284550;19;155139;-50
2022/01/01 09:10:55;;;;;;;;;;;;;;;21.04;50.49;101522.84;7284359;19;154140;-50
2022/01/01 09:13:22;;;;;;;;;;;;;;;21.04;50.56;101513.59;7286920;19;152131;-50
2022/01/01 09:15:49;;;;;;;;;;;;;;;21.02;50.42;101491.44;7293989;19;152676;-50
2022/01/01 09:18:16;;;;;;;;;;;;;;;21.04;50.47;101493.91;7286464;19;152068;-50
2022/01/01 09:20:43;;;;;;;;;;;;;;;21.01;49.84;101489.75;7290317;19;152033;-51
2022/01/01 09:23:10;;;;;;;;;;;;;;;21.04;50.02;101479.88;7286798;19;153763;-50
2022/01/01 09:25:36;;;;;;;;;;;;;;;21.02;49.76;101499.84;7288776;19;152503;-50
2022/01/01 09:28:03;;;;;;;;;;;;;;;21.01;50.19;101519.81;7286947;19;153357;-50
2022/01/01 09:30:30;;;;;;;;;;;;;;;21.03;49.59;101534.41;7283845;19;153473;-50
2022/01/01 09:32:57;;;;;;;;;;;;;;;21.00;49.73;101526.56;7286976;19;152197;-50
2022/01/01 09:35:23;;;;;;;;;;;;;;;20.99;49.63;101533.28;7286950;19;152819;-50
2022/01/01 09:37:50;;;;;;;;;;;;;;;20.98;49.40;101529.69;7293274;19;153731;-50
2022/01/01 09:40:18;;;;;;;;;;;;;;;20.98;49.23;101526.03;7286086;19;153375;-50
2022/01/01 09:42:46;;;;;;;;;;;;;;;20.94;49.18;101531.38;7286145;19;152601;-51
2022/01/01 09:45:12;;;;;;;;;;;;;;;20.94;49.15;101519.34;7286097;19;152328;-50
2022/01/01 09:47:40;;;;;;;;;;;;;;;20.94;49.18;101516.53;7285220;19;152719;-50
2022/01/01 09:50:08;;;;;;;;;;;;;;;20.89;49.53;101516.56;7281947;19;153807;-50
2022/01/01 09:52:36;;;;;;;;;;;;;;;20.86;48.98;101513.22;7285581;19;152073;-50
2022/01/01 09:55:03;;;;;;;;;;;;;;;20.86;49.09;101513.22;7287379;19;153789;-50
2022/01/01 09:57:30;;;;;;;;;;;;;;;20.84;49.02;101509.03;7286099;19;154496;-50
2022/01/01 09:59:57;;;;;;;;;;;;;;;20.82;49.08;101512.13;7293778;19;151872;-50
2022/01/01 10:02:24;;;;;;;;;;;;;;;20.81;49.23;101507.66;7283442;19;153299;-50
2022/01/01 10:04:52;;;;;;;;;;;;;;;20.80;48.90;101531.25;7283842;19;152791;-50
2022/01/01 10:07:27;;;;;;;;;;;;;;;20.80;49.04;101524.81;7283953;19;152453;-50
2022/01/01 10:09:54;;;;;;;;;;;;;;;20.77;49.04;101540.28;7284194;19;153303;-50
2022/01/01 10:12:35;;;;;;;;;;;;;;;20.75;49.00;101530.47;7283646;19;151793;-50
2022/01/01 10:15:06;;;;;;;;;;;;;;;20.74;48.48;101532.44;7288338;19;152800;-49
2022/01/01 10:17:34;;;;;;;;;;;;;;;20.73;48.87;101536.38;7285418;19;153424;-50
2022/01/01 10:20:01;;;;;;;;;;;;;;;20.71;48.90;101538.66;7291181;19;152306;-49
2022/01/01 10:22:28;;;;;;;;;;;;;;;20.70;48.83;101538.94;7282415;19;154049;-50
2022/01/01 10:30:09;;;;;;;;;;;;;;;20.65;48.93;101547.41;7283849;19;154130;-49
2022/01/01 10:32:36;;;;;;;;;;;;;;;20.65;48.56;101547.41;7283017;19;152405;-50
2022/01/01 10:35:05;;;;;;;;;;;;;;;20.63;48.50;101544.06;7282491;19;152689;-50
2022/01/01 10:37:33;;;;;;;;;;;;;;;20.62;48.91;101536.78;7284905;19;154272;-50
2022/01/01 10:40:00;;;;;;;;;;;;;;;20.62;48.69;101545.22;7283117;19;152111;-50
2022/01/01 10:42:27;;;;;;;;;;;;;;;20.57;48.69;101542.44;7291089;19;154598;-50
2022/01/01 10:44:54;;;;;;;;;;;;;;;20.56;48.64;101538.78;7282733;19;152058;-50
2022/01/01 10:47:28;;;;;;;;;;;;;;;20.56;48.46;101546.38;7281676;19;152978;-50
2022/01/01 10:52:33;;;;;;;;;;;;;;;20.52;48.33;101551.75;7282603;19;151616;-50
2022/01/01 10:55:01;;;;;;;;;;;;;;;20.51;48.63;101554.84;7282838;19;153778;-50
2022/01/01 10:57:36;;;;;;;;;;;;;;;20.51;48.54;101543.59;7283849;19;153446;-49
2022/01/01 11:00:06;;;;;;;;;;;;;;;20.47;48.90;101560.22;7286194;19;151982;-50
2022/01/01 11:02:33;;;;;;;;;;;;;;;20.45;48.74;101570.88;7287843;19;153081;-50
2022/01/01 11:05:03;;;;;;;;;;;;;;;20.46;48.64;101560.50;7287281;19;153999;-50
2022/01/01 11:07:30;;;;;;;;;;;;;;;20.44;48.92;101551.53;7282334;19;152636;-50
2022/01/01 11:09:58;;;;;;;;;;;;;;;20.41;48.81;101550.97;7282867;19;153808;-50
2022/01/01 11:12:27;;;;;;;;;;;;;;;20.40;48.63;101563.34;7279810;19;152632;-50
2022/01/01 11:14:54;;;;;;;;;;;;;;;20.40;48.58;101534.41;7281926;19;153486;-50
2022/01/01 11:17:22;;;;;;;;;;;;;;;20.38;48.80;101531.09;7281618;19;153533;-50
2022/01/01 11:19:49;;;;;;;;;;;;;;;20.37;49.00;101524.63;7284399;19;151980;-50
2022/01/01 11:22:18;;;;;;;;;;;;;;;20.38;48.64;101528.28;7283340;19;153553;-50
2022/01/01 11:24:45;;;;;;;;;;;;;;;20.36;48.51;101547.38;7280607;19;153489;-50
2022/01/01 11:27:12;;;;;;;;;;;;;;;20.34;48.70;101538.44;7289570;19;152850;-50
2022/01/01 11:29:43;;;;;;;;;;;;;;;20.34;48.57;101552.47;7281192;19;154019;-50
2022/01/01 11:32:11;;;;;;;;;;;;;;;20.35;48.75;101540.91;7284166;19;151466;-50
2022/01/01 11:34:38;;;;;;;;;;;;;;;20.33;48.52;101526.34;7285617;19;152831;-49
2022/01/01 11:37:05;;;;;;;;;;;;;;;20.32;48.95;101547.13;7280719;19;153941;-49
2022/01/01 11:39:32;;;;;;;;;;;;;;;20.30;48.91;101535.38;7284360;19;151849;-50
2022/01/01 11:42:08;;;;;;;;;;;;;;;20.30;48.95;101542.94;7282315;19;153231;-50
2022/01/01 11:44:35;;;;;;;;;;;;;;;20.29;49.09;101528.03;7280958;19;153785;-50
2022/01/01 11:47:04;;;;;;;;;;;;;;;20.28;48.78;101550.78;7282331;19;151993;-50
2022/01/01 11:49:32;;;;;;;;;;;;;;;20.28;48.81;101529.16;7289060;19;153590;-50
2022/01/01 11:52:34;;;;;;;;;;;;;;;20.29;49.06;101524.41;7279066;19;151915;-50
2022/01/01 11:55:03;;;;;;;;;;;;;;;20.26;49.29;101537.03;7281543;19;153202;-49
2022/01/01 11:57:31;;;;;;;;;;;;;;;20.26;49.29;101536.22;7283364;19;155592;-49
2022/01/01 12:00:02;;;;;;;;;;;;;;;20.22;49.03;101518.25;7284214;19;151761;-49
2022/01/01 12:02:30;;;;;;;;;;;;;;;20.21;49.45;101511.84;7280520;19;154152;-49
2022/01/01 12:05:17;;;;;;;;;;;;;;;20.18;49.38;101532.03;7284268;19;154088;-51
2022/01/01 12:07:48;;;;;;;;;;;;;;;20.18;49.40;101511.56;7279202;19;152003;-50
2022/01/01 12:10:17;;;;;;;;;;;;;;;20.15;49.55;101493.38;7282866;19;152712;-50
2022/01/01 12:12:48;;;;;;;;;;;;;;;20.11;49.71;101494.25;7286185;19;152150;-50
2022/01/01 12:15:18;;;;;;;;;;;;;;;20.06;49.97;101485.84;7283535;19;153429;-50
2022/01/01 12:17:48;;;;;;;;;;;;;;;20.00;50.12;101504.69;7281499;19;153842;-50
2022/01/01 12:20:17;;;;;;;;;;;;;;;19.99;50.19;101492.63;7284723;19;152075;-50
2022/01/01 12:22:44;;;;;;;;;;;;;;;19.99;50.29;101517.88;7281267;19;152876;-51
2022/01/01 12:25:14;;;;;;;;;;;;;;;19.94;50.50;101481.44;7279302;19;154069;-50
2022/01/01 12:27:42;;;;;;;;;;;;;;;19.92;50.76;101492.13;7291694;19;151585;-50
2022/01/01 12:30:09;;;;;;;;;;;;;;;19.91;50.56;101484.00;7294476;19;153372;-50
2022/01/01 12:32:37;;;;;;;;;;;;;;;19.90;50.65;101502.78;7301230;19;154073;-50
2022/01/01 12:35:05;;;;;;;;;;;;;;;19.88;50.59;101478.97;7295633;19;153582;-50
2022/01/01 12:37:35;;;;;;;;;;;;;;;19.86;50.62;101475.63;7297551;19;154231;-50
2022/01/01 12:40:04;;;;;;;;;;;;;;;19.84;51.13;101466.69;7294955;19;152327;-50
2022/01/01 12:42:33;;;;;;;;;;;;;;;19.82;50.83;101454.91;7292798;19;153104;-50
2022/01/01 12:45:04;;;;;;;;;;;;;;;19.84;50.79;101447.88;7296508;19;153623;-50